MMCT

Details ICAO MMCT
Name CHICHEN ITZA INTL
Region Mexico
Timezone America/Merida (UTC-6.0)
Plans Departing 2
Arriving 6
Stats Elevation 102 ft / 31 m (AMSL)
Location 20.641295° -88.446219°
Runways 1
Magnetic Variation 0.890° W
Sunrise 2017-12-16 12:24:24 UTC / 2017-12-16 06:24:24 Local
Sunset 2017-12-16 23:17:26 UTC / 2017-12-16 17:17:26 Local
Advertisement - Login to hide

Runways

ID Width Length Bearing (true) Bearing (mag) Surface Threshold Offset Overrun Length
10 148 ft / 45 m 9,170 ft / 2,795 m 100.32° 101.21° Concrete 0 ft / 0 m 0 ft / 0 m
28 148 ft / 45 m 9,170 ft / 2,795 m 280.33° 281.22° Concrete 0 ft / 0 m 0 ft / 0 m

Map

Weather


0- 5 10 15 20 25 30 35+ Temperature / ° C

Clouds and Precipitation
Forecast for 2017-12-16 18:00 UTC. Updated 12 minutes ago

Ground ~20,000 ft ~40,000 ft Winds

METAR

MMCT 161645Z 00000KT 6SM OVC020 24/21 A3011 RMK 8/6// MSGTX MMMD

TAF

Not found

Frequencies

Tower 118.90 MHz TWR
Warning: Do not use this data for real-world aviation or navigation. No guarantee of current accuracy is given.